Time;durP1;ratioP1;P1;durP2;ratioP2;P2;SDS_P1;SDS_P2;PMS_P1;PMS_P2;Temp;Humidity;BMP_temperature;BMP_pressure;BME280_temperature;BME280_humidity;BME280_pressure;Samples;Min_cycle;Max_cycle;Signal;HPM_P1;HPM_P2
2022/11/08 00:02:06;;;;;;;;;4.33;3.00;;;;;22.52;47.49;100514.06;5035063;28;45634;-69
2022/11/08 00:04:33;;;;;;;;;9.33;7.00;;;;;22.54;47.86;100510.38;5038641;28;45339;-69
2022/11/08 00:15:10;;;;;;;;;7.00;5.00;;;;;22.54;48.09;100500.59;5038114;28;45351;-70
2022/11/08 00:17:35;;;;;;;;;5.67;4.33;;;;;22.55;48.02;100493.47;5038159;28;45332;-69
2022/11/08 00:20:01;;;;;;;;;10.00;5.67;;;;;22.51;48.03;100479.75;5038855;28;45338;-69
2022/11/08 00:22:29;;;;;;;;;7.67;4.33;;;;;22.55;47.82;100482.88;5037898;28;47179;-69
2022/11/08 00:24:54;;;;;;;;;6.67;5.00;;;;;22.57;47.59;100475.53;5038129;28;45420;-69
2022/11/08 00:27:22;;;;;;;;;4.33;4.33;;;;;22.58;47.67;100469.22;5038106;28;45456;-69
2022/11/08 00:29:47;;;;;;;;;9.00;4.33;;;;;22.56;47.81;100464.09;5041613;28;45347;-69
2022/11/08 00:32:15;;;;;;;;;5.33;4.67;;;;;22.57;47.57;100452.50;5044431;28;45320;-69
2022/11/08 00:34:40;;;;;;;;;7.67;4.33;;;;;22.58;48.27;100454.13;5036382;28;45475;-69
2022/11/08 00:37:06;;;;;;;;;6.00;4.00;;;;;22.46;47.96;100422.03;5025752;28;45695;-70
2022/11/08 00:39:31;;;;;;;;;11.00;4.00;;;;;22.61;48.10;100421.91;5038234;28;45418;-69
2022/11/08 00:41:57;;;;;;;;;7.67;5.00;;;;;22.62;47.98;100412.97;5037885;28;45907;-69
2022/11/08 00:44:22;;;;;;;;;7.67;5.00;;;;;22.63;48.11;100408.47;5037435;28;45427;-69
2022/11/08 00:46:49;;;;;;;;;5.67;3.33;;;;;22.63;47.92;100409.31;5038047;28;45359;-69
2022/11/08 00:49:14;;;;;;;;;7.00;4.67;;;;;22.64;47.50;100415.41;5038013;28;45437;-69
2022/11/08 00:51:39;;;;;;;;;5.67;4.67;;;;;22.62;47.98;100399.69;5039727;28;46066;-69
2022/11/08 00:54:06;;;;;;;;;6.00;4.33;;;;;22.59;47.97;100392.13;5041764;28;45453;-69
2022/11/08 00:56:32;;;;;;;;;4.67;4.00;;;;;22.63;48.04;100387.25;5044603;28;45480;-69
2022/11/08 00:58:58;;;;;;;;;6.67;5.33;;;;;22.62;48.01;100381.13;5037032;28;45326;-69
2022/11/08 01:01:24;;;;;;;;;7.67;5.00;;;;;22.54;47.88;100365.38;5037436;28;45344;-70
2022/11/08 01:03:49;;;;;;;;;6.33;4.00;;;;;22.60;47.96;100383.16;5032977;28;45383;-70
2022/11/08 01:06:17;;;;;;;;;8.00;4.33;;;;;22.57;47.93;100361.53;5027145;28;45353;-69
2022/11/08 01:08:43;;;;;;;;;6.67;2.67;;;;;22.61;47.50;100376.03;5037676;28;45625;-69
2022/11/08 01:11:13;;;;;;;;;5.67;3.33;;;;;22.62;47.63;100370.53;5037205;28;45337;-69
2022/11/08 01:13:38;;;;;;;;;5.00;4.00;;;;;22.60;48.09;100366.44;5036898;28;45383;-70
2022/11/08 01:16:12;;;;;;;;;8.00;3.00;;;;;22.62;47.84;100373.19;5037475;28;45406;-70
2022/11/08 01:18:38;;;;;;;;;5.67;4.00;;;;;22.62;47.58;100362.56;5033304;28;45369;-69
2022/11/08 01:21:05;;;;;;;;;7.00;2.67;;;;;22.59;47.78;100362.13;5037297;28;46176;-69
2022/11/08 01:23:30;;;;;;;;;5.00;3.67;;;;;22.63;47.45;100369.53;5043683;28;45221;-69
2022/11/08 01:26:01;;;;;;;;;9.00;5.00;;;;;22.57;47.92;100342.97;5039656;28;45448;-69
2022/11/08 01:28:26;;;;;;;;;5.67;3.00;;;;;22.66;47.45;100359.53;5037644;28;45336;-69
2022/11/08 01:30:52;;;;;;;;;4.67;4.00;;;;;22.62;47.37;100357.28;5034593;28;55813;-69
2022/11/08 01:33:17;;;;;;;;;8.33;4.00;;;;;22.64;47.83;100354.41;5035734;28;49747;-70
2022/11/08 01:35:44;;;;;;;;;5.67;2.33;;;;;22.65;47.86;100352.59;5026492;28;45289;-69
2022/11/08 01:38:10;;;;;;;;;7.67;4.00;;;;;22.66;47.91;100359.53;5033601;28;45375;-69
2022/11/08 01:40:44;;;;;;;;;7.00;3.00;;;;;22.64;48.14;100349.13;5036330;28;45496;-69
2022/11/08 01:43:25;;;;;;;;;1.67;1.67;;;;;22.63;47.72;100366.88;5036879;28;45282;-70
2022/11/08 01:46:08;;;;;;;;;5.33;4.33;;;;;22.62;47.39;100359.09;5036994;28;45373;-69
2022/11/08 01:48:40;;;;;;;;;6.00;2.67;;;;;22.57;47.95;100356.22;5037047;28;45424;-69
2022/11/08 01:51:09;;;;;;;;;5.67;4.67;;;;;22.62;47.83;100348.50;5036533;28;46160;-69
2022/11/08 01:53:35;;;;;;;;;6.33;5.00;;;;;22.61;47.41;100360.94;5036796;28;45445;-69
2022/11/08 01:56:00;;;;;;;;;3.67;3.33;;;;;22.59;47.39;100359.50;5046095;28;45464;-69
2022/11/08 01:58:32;;;;;;;;;6.67;5.00;;;;;22.61;47.79;100358.28;5036709;28;45398;-69
2022/11/08 02:01:00;;;;;;;;;4.33;4.33;;;;;22.60;47.95;100347.88;5036447;28;46570;-69
2022/11/08 02:03:27;;;;;;;;;7.33;4.00;;;;;22.62;47.76;100353.81;5036258;28;45426;-70
2022/11/08 02:05:53;;;;;;;;;6.33;3.33;;;;;22.61;47.56;100346.88;5046956;28;45355;-70
2022/11/08 02:08:33;;;;;;;;;3.33;3.33;;;;;22.53;47.90;100318.69;5036760;28;45343;-69
2022/11/08 02:10:59;;;;;;;;;4.00;3.33;;;;;22.61;47.64;100336.28;5022641;28;46438;-70
2022/11/08 02:13:27;;;;;;;;;4.00;4.00;;;;;22.59;47.68;100331.16;5036605;28;45388;-69
2022/11/08 02:15:52;;;;;;;;;5.00;3.33;;;;;22.60;47.89;100327.50;5036578;28;45407;-69
2022/11/08 02:18:20;;;;;;;;;3.67;2.00;;;;;22.60;47.73;100319.53;5045907;28;45270;-68
2022/11/08 02:20:54;;;;;;;;;8.33;4.67;;;;;22.60;47.95;100316.06;5039177;28;46067;-69
2022/11/08 02:23:26;;;;;;;;;7.00;4.00;;;;;22.60;47.63;100322.19;5036480;28;45507;-69
2022/11/08 02:25:52;;;;;;;;;5.33;4.33;;;;;22.60;47.67;100316.88;5034931;28;45378;-69
2022/11/08 02:28:17;;;;;;;;;9.33;3.67;;;;;22.61;47.66;100307.91;5036676;28;45474;-69
2022/11/08 02:30:43;;;;;;;;;6.67;3.33;;;;;22.53;47.51;100292.19;5045981;28;46081;-69
2022/11/08 02:33:17;;;;;;;;;3.00;3.00;;;;;22.61;47.69;100299.16;5035272;28;45191;-69
2022/11/08 02:35:45;;;;;;;;;2.33;1.67;;;;;22.58;47.37;100303.00;5026313;28;45431;-69
2022/11/08 02:38:10;;;;;;;;;5.67;3.33;;;;;22.61;47.41;100299.94;5035310;28;45530;-69
2022/11/08 02:40:46;;;;;;;;;2.33;2.00;;;;;22.54;47.51;100291.16;5035834;28;46355;-69
2022/11/08 02:43:12;;;;;;;;;5.33;3.33;;;;;22.61;47.76;100294.66;5035980;28;45514;-69
2022/11/08 02:45:37;;;;;;;;;6.33;3.00;;;;;22.55;47.47;100273.41;5034816;28;45405;-69
2022/11/08 02:48:03;;;;;;;;;3.00;2.67;;;;;22.59;47.18;100275.47;5037502;28;51056;-69
2022/11/08 02:50:28;;;;;;;;;4.33;2.00;;;;;22.59;47.60;100278.13;5036060;28;46241;-69
2022/11/08 02:52:53;;;;;;;;;4.00;4.00;;;;;22.55;47.61;100255.69;5036099;28;45355;-69
2022/11/08 02:55:19;;;;;;;;;3.00;3.00;;;;;22.57;47.79;100272.22;5035646;28;45323;-69
2022/11/08 02:57:44;;;;;;;;;5.33;2.00;;;;;22.58;47.37;100276.50;5035678;28;45350;-69
2022/11/08 03:00:10;;;;;;;;;4.00;1.67;;;;;22.57;47.72;100272.22;5035399;28;48334;-69
2022/11/08 03:02:35;;;;;;;;;2.33;2.00;;;;;22.56;47.80;100278.50;5034585;28;45921;-69
2022/11/08 03:05:01;;;;;;;;;4.00;3.00;;;;;22.57;47.58;100279.34;5035328;28;46900;-69
2022/11/08 03:07:26;;;;;;;;;5.33;2.67;;;;;22.56;47.34;100281.16;5035796;28;45473;-69
2022/11/08 03:09:51;;;;;;;;;2.67;2.67;;;;;22.56;47.64;100278.50;5035219;28;46114;-69
2022/11/08 03:12:18;;;;;;;;;2.67;2.67;;;;;22.57;47.19;100276.69;5035855;28;45436;-69
2022/11/08 03:14:44;;;;;;;;;3.33;2.00;;;;;22.56;47.49;100277.72;5035817;28;45336;-69
2022/11/08 03:17:09;;;;;;;;;5.67;3.33;;;;;22.55;47.61;100268.94;5035406;28;45392;-69
2022/11/08 03:19:34;;;;;;;;;4.00;3.33;;;;;22.56;47.11;100265.25;5035415;28;46071;-72
2022/11/08 03:22:00;;;;;;;;;3.67;2.00;;;;;22.56;47.15;100272.41;5022818;28;45416;-70
2022/11/08 03:24:25;;;;;;;;;5.67;3.00;;;;;22.55;47.29;100266.28;5034319;28;45692;-69
2022/11/08 03:26:51;;;;;;;;;3.00;2.00;;;;;22.56;47.60;100259.94;5035640;28;45349;-69
2022/11/08 03:29:16;;;;;;;;;5.00;1.33;;;;;22.51;47.47;100252.59;5035061;28;45417;-69
2022/11/08 03:31:41;;;;;;;;;1.67;1.67;;;;;22.56;47.62;100261.81;5041316;28;45352;-69
2022/11/08 03:34:09;;;;;;;;;3.00;3.00;;;;;22.54;47.28;100253.22;5031745;28;45341;-69
2022/11/08 03:36:34;;;;;;;;;4.00;3.00;;;;;22.55;47.73;100249.56;5021145;28;45443;-69
2022/11/08 03:38:59;;;;;;;;;4.00;3.00;;;;;22.54;47.42;100256.69;5038145;28;47115;-69
2022/11/08 03:41:25;;;;;;;;;4.67;4.00;;;;;22.52;47.22;100253.41;5038827;28;45348;-69
2022/11/08 03:43:50;;;;;;;;;2.00;1.00;;;;;22.53;47.48;100249.75;5039050;28;45507;-69
2022/11/08 03:46:15;;;;;;;;;8.67;3.00;;;;;22.54;47.43;100247.91;5039024;28;45519;-69
2022/11/08 03:48:41;;;;;;;;;2.67;1.67;;;;;22.52;47.49;100240.16;5038845;28;46188;-69
2022/11/08 03:51:06;;;;;;;;;3.33;2.00;;;;;22.53;47.18;100236.50;5038364;28;45296;-69
2022/11/08 03:53:31;;;;;;;;;6.67;2.00;;;;;22.47;47.58;100230.16;5038411;28;45351;-69
2022/11/08 03:56:00;;;;;;;;;4.67;3.67;;;;;22.48;47.19;100215.09;5047850;28;45233;-69
2022/11/08 03:58:25;;;;;;;;;2.67;2.33;;;;;22.52;47.17;100229.56;5038633;28;45965;-69
2022/11/08 04:00:50;;;;;;;;;5.67;3.00;;;;;22.52;47.06;100229.56;5043537;28;45228;-69
2022/11/08 04:03:16;;;;;;;;;4.33;2.67;;;;;22.52;47.49;100235.69;5038556;28;45403;-69
2022/11/08 04:05:41;;;;;;;;;4.67;2.67;;;;;22.54;47.38;100224.06;5038101;28;45372;-69
2022/11/08 04:08:07;;;;;;;;;5.00;2.67;;;;;22.54;47.62;100230.19;5037231;28;47902;-69
2022/11/08 04:10:32;;;;;;;;;2.33;2.33;;;;;22.54;47.07;100216.09;5038570;28;45309;-69
2022/11/08 04:15:44;;;;;;;;;1.67;1.67;;;;;22.49;46.94;100214.03;5038243;28;45412;-69
2022/11/08 04:23:37;;;;;;;;;3.00;2.00;;;;;22.53;47.40;100241.81;5038478;28;45360;-69
2022/11/08 04:26:05;;;;;;;;;1.67;1.67;;;;;22.54;47.29;100267.28;5038078;28;45373;-69
2022/11/08 04:28:33;;;;;;;;;4.67;2.33;;;;;22.54;47.25;100253.22;5037917;28;46362;-70
2022/11/08 04:31:03;;;;;;;;;3.67;2.67;;;;;22.53;47.48;100260.38;5037928;28;45399;-69
2022/11/08 04:33:29;;;;;;;;;5.67;1.67;;;;;22.55;47.60;100260.16;5037943;28;45344;-69
2022/11/08 04:35:55;;;;;;;;;5.00;1.67;;;;;22.52;46.93;100256.91;5031328;28;45412;-69
2022/11/08 04:38:20;;;;;;;;;5.00;3.00;;;;;22.49;47.40;100243.22;5038295;28;45530;-69
2022/11/08 04:40:46;;;;;;;;;1.67;1.67;;;;;22.52;47.41;100256.91;5038308;28;45348;-70
2022/11/08 04:43:12;;;;;;;;;2.67;1.67;;;;;22.52;47.09;100251.59;5038199;28;45423;-69
2022/11/08 04:45:38;;;;;;;;;4.33;2.33;;;;;22.52;47.41;100261.38;5038229;28;45439;-69
2022/11/08 04:48:03;;;;;;;;;3.00;2.00;;;;;22.52;47.16;100258.72;5037499;28;47191;-69
2022/11/08 04:50:28;;;;;;;;;1.67;1.67;;;;;22.51;46.94;100254.44;5037433;28;45260;-69
2022/11/08 04:52:54;;;;;;;;;2.33;1.33;;;;;22.51;47.10;100244.66;5037987;28;45351;-70
2022/11/08 04:55:21;;;;;;;;;1.67;1.67;;;;;22.51;46.76;100236.69;5037885;28;45579;-70
2022/11/08 04:57:47;;;;;;;;;5.00;1.67;;;;;22.50;47.37;100235.06;5037736;28;47181;-69
2022/11/08 05:00:13;;;;;;;;;6.00;3.00;;;;;22.50;47.43;100245.69;5042801;28;46051;-69
2022/11/08 05:02:39;;;;;;;;;4.00;1.67;;;;;22.50;46.92;100242.19;5037853;28;45406;-69
2022/11/08 05:05:04;;;;;;;;;0.67;0.67;;;;;22.49;47.50;100254.63;5047102;28;45339;-69
2022/11/08 05:07:30;;;;;;;;;3.00;2.00;;;;;22.46;47.32;100249.72;5037972;28;45969;-70
2022/11/08 05:09:55;;;;;;;;;1.67;1.67;;;;;22.51;47.25;100259.72;5037601;28;45359;-69
2022/11/08 05:12:21;;;;;;;;;4.67;2.00;;;;;22.38;47.05;100233.97;5037565;28;45500;-69
2022/11/08 05:14:46;;;;;;;;;4.67;2.67;;;;;22.50;47.14;100261.59;5037733;28;45458;-69
2022/11/08 05:17:12;;;;;;;;;3.33;2.33;;;;;22.45;47.19;100260.53;5037406;28;45839;-69
2022/11/08 05:25:05;;;;;;;;;4.00;2.00;;;;;22.37;46.83;100235.84;5037057;28;45265;-69
2022/11/08 05:27:31;;;;;;;;;1.67;1.67;;;;;22.48;47.35;100246.88;5037159;28;46998;-69
2022/11/08 05:29:56;;;;;;;;;4.33;3.00;;;;;22.47;47.21;100267.28;5041913;28;45491;-69
2022/11/08 05:32:21;;;;;;;;;3.67;3.67;;;;;22.47;46.95;100253.19;5041001;28;48889;-69
2022/11/08 05:34:47;;;;;;;;;4.67;2.67;;;;;22.43;46.99;100246.66;5034244;28;45338;-69
2022/11/08 05:37:12;;;;;;;;;1.67;1.67;;;;;22.48;47.21;100276.06;5031829;28;45341;-69
2022/11/08 05:39:37;;;;;;;;;4.33;1.33;;;;;22.49;47.36;100264.41;5042891;28;45403;-69
2022/11/08 05:42:04;;;;;;;;;3.67;1.67;;;;;22.47;47.24;100261.97;5037562;28;45428;-69
2022/11/08 05:44:30;;;;;;;;;4.33;2.33;;;;;22.37;47.48;100235.84;5036994;28;45430;-69
2022/11/08 05:46:55;;;;;;;;;7.67;1.67;;;;;22.49;47.16;100251.97;5036679;28;46203;-69
2022/11/08 05:49:21;;;;;;;;;2.00;2.00;;;;;22.50;46.89;100239.56;5036473;28;45422;-69
2022/11/08 05:51:46;;;;;;;;;3.33;2.33;;;;;22.44;46.77;100219.94;5037002;28;45531;-69
2022/11/08 05:54:12;;;;;;;;;1.67;1.67;;;;;22.49;46.95;100236.06;5036895;28;45570;-69
2022/11/08 05:56:38;;;;;;;;;5.00;3.00;;;;;22.50;46.84;100231.59;5036639;28;47104;-70
2022/11/08 05:59:03;;;;;;;;;3.00;2.00;;;;;22.37;46.88;100222.59;5036922;28;45305;-69
2022/11/08 06:01:28;;;;;;;;;3.33;0.67;;;;;22.49;46.92;100235.25;5041037;28;45399;-69
2022/11/08 06:03:54;;;;;;;;;2.00;2.00;;;;;22.49;46.89;100229.94;5036233;28;45406;-70
2022/11/08 06:06:20;;;;;;;;;1.67;1.67;;;;;22.45;47.22;100213.66;5036716;28;46294;-69
2022/11/08 06:08:46;;;;;;;;;2.00;2.00;;;;;22.50;46.81;100216.53;5036586;28;45517;-70
2022/11/08 06:11:15;;;;;;;;;1.33;1.33;;;;;22.49;47.34;100209.56;5036649;28;45290;-69
2022/11/08 06:13:41;;;;;;;;;4.00;1.00;;;;;22.49;46.91;100206.09;5035193;28;45329;-70
2022/11/08 06:16:12;;;;;;;;;3.00;1.67;;;;;22.49;47.32;100206.09;5036152;28;46280;-70
2022/11/08 06:18:38;;;;;;;;;1.33;1.33;;;;;22.48;47.04;100194.66;5036714;28;45448;-69
2022/11/08 06:21:05;;;;;;;;;5.67;1.00;;;;;22.46;47.37;100186.09;5039183;28;45459;-70
2022/11/08 06:23:32;;;;;;;;;3.00;2.33;;;;;22.40;46.83;100192.22;5044659;28;45436;-70
2022/11/08 06:25:58;;;;;;;;;2.33;1.67;;;;;22.48;46.92;100197.31;5035833;28;46248;-69
2022/11/08 06:28:23;;;;;;;;;2.00;1.67;;;;;22.48;46.70;100204.47;5036496;28;45424;-69
2022/11/08 06:30:49;;;;;;;;;4.67;1.67;;;;;22.40;47.19;100192.22;5045623;28;45444;-70
2022/11/08 06:33:14;;;;;;;;;1.67;1.67;;;;;22.48;47.02;100223.81;5036325;28;45660;-69
2022/11/08 06:35:40;;;;;;;;;2.00;1.00;;;;;22.47;46.70;100224.88;5030115;28;45441;-70
2022/11/08 06:38:06;;;;;;;;;1.00;1.00;;;;;22.46;47.02;100228.50;5036007;28;45568;-69
2022/11/08 06:40:32;;;;;;;;;2.33;1.67;;;;;22.45;46.80;100228.72;5036397;28;45405;-69
2022/11/08 06:42:58;;;;;;;;;3.67;3.00;;;;;22.38;46.98;100226.03;5035825;28;45293;-69
2022/11/08 06:45:24;;;;;;;;;1.00;1.00;;;;;22.46;47.25;100233.00;5035595;28;47183;-69
2022/11/08 06:47:56;;;;;;;;;4.33;2.00;;;;;22.47;47.30;100239.94;5035983;28;45321;-70
2022/11/08 06:50:21;;;;;;;;;2.00;1.67;;;;;22.46;47.35;100249.72;5035542;28;45336;-70
2022/11/08 06:52:47;;;;;;;;;2.00;2.00;;;;;22.46;47.17;100259.50;5035658;28;50230;-70
2022/11/08 06:55:12;;;;;;;;;2.67;1.67;;;;;22.45;47.16;100265.84;5035213;28;54423;-69
2022/11/08 06:57:37;;;;;;;;;4.00;3.00;;;;;22.44;47.20;100266.84;5035807;28;46389;-69
2022/11/08 07:00:04;;;;;;;;;5.00;1.67;;;;;22.45;47.27;100264.00;5034167;28;45392;-69
2022/11/08 07:02:29;;;;;;;;;0.00;0.00;;;;;22.44;47.14;100254.41;5035955;28;45540;-71
2022/11/08 07:04:54;;;;;;;;;4.00;2.33;;;;;22.43;46.70;100242.16;5035233;28;45985;-73
2022/11/08 07:07:20;;;;;;;;;1.00;1.00;;;;;22.45;47.19;100248.09;5037390;28;45412;-72
2022/11/08 07:09:45;;;;;;;;;1.67;1.67;;;;;22.46;46.87;100255.03;5035907;28;45368;-70
2022/11/08 07:12:10;;;;;;;;;3.00;2.00;;;;;22.46;46.65;100262.97;5035198;28;47056;-69
2022/11/08 07:14:36;;;;;;;;;1.33;1.33;;;;;22.38;46.81;100250.72;5035421;28;46058;-70
2022/11/08 07:17:01;;;;;;;;;3.00;3.00;;;;;22.47;47.03;100272.56;5035815;28;45888;-69
2022/11/08 07:19:26;;;;;;;;;2.00;2.00;;;;;22.49;47.18;100265.25;5022270;28;45365;-69
2022/11/08 07:21:52;;;;;;;;;1.00;1.00;;;;;22.50;45.58;100268.72;5037730;28;45335;-72
2022/11/08 07:24:17;;;;;;;;;4.00;2.00;;;;;22.34;44.90;100275.97;5037526;28;47081;-68
2022/11/08 07:26:42;;;;;;;;;2.67;2.67;;;;;22.27;46.23;100273.31;5034207;28;45436;-71
2022/11/08 07:29:08;;;;;;;;;2.00;2.00;;;;;22.26;46.62;100268.19;5035309;28;45323;-69
2022/11/08 07:31:33;;;;;;;;;2.00;1.00;;;;;22.24;46.38;100265.75;5035430;28;45443;-70
2022/11/08 07:33:58;;;;;;;;;1.33;1.33;;;;;22.30;46.56;100274.75;5035127;28;47325;-70
2022/11/08 07:36:23;;;;;;;;;3.33;2.33;;;;;22.31;46.97;100281.66;5021167;28;45531;-70
2022/11/08 07:38:50;;;;;;;;;1.00;1.00;;;;;22.32;46.58;100279.84;5035250;28;45461;-70
2022/11/08 07:41:15;;;;;;;;;1.33;1.00;;;;;22.33;46.80;100282.28;5035475;28;45312;-69
2022/11/08 07:43:41;;;;;;;;;3.00;2.00;;;;;22.34;46.81;100283.94;5034236;28;50918;-70
2022/11/08 07:46:06;;;;;;;;;1.00;1.00;;;;;22.35;46.91;100279.44;5035155;28;45333;-70
2022/11/08 07:48:31;;;;;;;;;1.33;1.33;;;;;22.33;46.68;100278.84;5035086;28;45462;-70
2022/11/08 07:50:57;;;;;;;;;2.33;0.33;;;;;22.35;47.18;100290.06;5035041;28;45320;-70
2022/11/08 07:53:23;;;;;;;;;3.00;1.33;;;;;22.36;47.14;100291.69;5033750;28;46892;-70
2022/11/08 07:55:48;;;;;;;;;1.00;1.00;;;;;22.35;46.96;100293.50;5035243;28;45468;-70
2022/11/08 07:58:15;;;;;;;;;2.00;1.00;;;;;22.36;46.77;100297.81;5035133;28;45222;-70
2022/11/08 08:00:41;;;;;;;;;1.00;1.00;;;;;22.33;46.98;100292.09;5040071;28;45546;-70
2022/11/08 08:03:10;;;;;;;;;3.00;1.00;;;;;22.37;46.79;100294.16;5034271;28;45475;-70
2022/11/08 08:05:38;;;;;;;;;1.33;1.33;;;;;22.38;47.24;100300.25;5034578;28;45514;-70
2022/11/08 08:08:04;;;;;;;;;1.00;1.00;;;;;22.35;46.99;100280.25;5035117;28;45409;-70
2022/11/08 08:10:31;;;;;;;;;1.67;1.00;;;;;22.38;46.71;100285.16;5035104;28;45270;-70
2022/11/08 08:12:57;;;;;;;;;1.00;0.67;;;;;22.39;47.24;100300.06;5034287;28;45371;-70
2022/11/08 08:15:23;;;;;;;;;3.00;1.00;;;;;22.40;46.92;100295.59;5034925;28;45392;-70
2022/11/08 08:17:48;;;;;;;;;1.00;1.00;;;;;22.41;46.69;100302.50;5034582;28;45848;-70
2022/11/08 08:20:14;;;;;;;;;2.00;2.00;;;;;22.42;46.86;100300.69;5034938;28;45329;-70
2022/11/08 08:22:47;;;;;;;;;1.00;1.00;;;;;22.42;47.09;100298.84;5034812;28;45312;-70
2022/11/08 08:25:13;;;;;;;;;2.00;1.67;;;;;22.42;46.67;100305.97;5037614;28;45338;-70
2022/11/08 08:27:38;;;;;;;;;1.67;1.67;;;;;22.36;47.04;100289.84;5038013;28;45356;-69
2022/11/08 08:30:05;;;;;;;;;3.00;1.00;;;;;22.37;46.75;100290.69;5038014;28;45647;-70
2022/11/08 08:32:31;;;;;;;;;2.00;1.00;;;;;22.45;47.14;100306.41;5037918;28;45489;-70
2022/11/08 08:34:56;;;;;;;;;2.00;2.00;;;;;22.46;46.69;100301.91;5037834;28;45572;-70
2022/11/08 08:37:21;;;;;;;;;4.00;2.00;;;;;22.42;47.00;100298.84;5027336;28;51499;-70
2022/11/08 08:39:46;;;;;;;;;1.00;1.00;;;;;22.46;46.66;100305.38;5037820;28;45440;-70
2022/11/08 08:42:12;;;;;;;;;1.00;1.00;;;;;22.46;47.10;100305.38;5037615;28;52340;-70
2022/11/08 08:44:37;;;;;;;;;2.67;2.67;;;;;22.46;46.70;100308.03;5038231;28;45387;-70
2022/11/08 08:47:03;;;;;;;;;1.00;1.00;;;;;22.45;46.92;100297.66;5038126;28;45363;-70
2022/11/08 08:49:28;;;;;;;;;3.00;2.00;;;;;22.47;47.21;100301.75;5038647;28;45434;-70
2022/11/08 08:51:54;;;;;;;;;1.67;1.67;;;;;22.49;47.24;100307.66;5040363;28;45875;-70
2022/11/08 08:54:19;;;;;;;;;1.33;0.67;;;;;22.50;47.00;100311.94;5037926;28;45475;-70
2022/11/08 08:56:44;;;;;;;;;0.67;0.67;;;;;22.50;47.07;100301.34;5037632;28;45337;-70
2022/11/08 08:59:10;;;;;;;;;3.00;0.67;;;;;22.52;47.07;100301.97;5036676;28;45591;-70
2022/11/08 09:01:36;;;;;;;;;1.67;1.33;;;;;22.54;47.17;100299.09;5037528;28;46387;-70
2022/11/08 09:04:03;;;;;;;;;1.33;1.33;;;;;22.56;47.14;100307.66;5036943;28;45465;-70
2022/11/08 09:06:28;;;;;;;;;1.00;0.33;;;;;22.53;46.89;100300.13;5050238;28;45440;-70
2022/11/08 09:08:53;;;;;;;;;1.33;1.00;;;;;22.55;47.03;100292.78;5034982;28;45447;-70
2022/11/08 09:11:19;;;;;;;;;0.00;0.00;;;;;22.61;47.16;100310.56;5037574;28;45509;-70
2022/11/08 09:13:44;;;;;;;;;3.00;1.67;;;;;22.61;46.84;100307.91;5037894;28;45399;-70
2022/11/08 09:16:12;;;;;;;;;2.33;2.33;;;;;22.66;46.93;100311.81;5037742;28;45480;-70
2022/11/08 09:18:37;;;;;;;;;1.67;1.00;;;;;22.67;47.08;100322.22;5037593;28;45476;-70
2022/11/08 09:21:03;;;;;;;;;1.00;1.00;;;;;22.68;46.57;100312.44;5037417;28;46265;-70
2022/11/08 09:23:28;;;;;;;;;2.00;2.00;;;;;22.69;46.60;100308.78;5037231;28;45333;-71
2022/11/08 09:25:58;;;;;;;;;1.67;1.67;;;;;22.66;46.65;100304.69;5037076;28;45195;-70
2022/11/08 09:28:24;;;;;;;;;2.33;0.33;;;;;22.71;46.35;100304.09;5037445;28;45336;-70
2022/11/08 09:30:49;;;;;;;;;1.00;1.00;;;;;22.70;46.41;100297.97;5045831;28;46157;-70
2022/11/08 09:33:14;;;;;;;;;6.33;2.00;;;;;22.71;46.64;100293.50;5037173;28;48186;-70
2022/11/08 09:35:39;;;;;;;;;0.67;0.67;;;;;22.71;46.54;100293.50;5030118;28;45344;-71
2022/11/08 09:38:06;;;;;;;;;0.67;0.67;;;;;22.71;46.81;100294.34;5032262;28;51089;-70
2022/11/08 09:40:31;;;;;;;;;1.33;0.67;;;;;22.71;46.42;100283.72;5037034;28;46865;-70
2022/11/08 09:43:23;;;;;;;;;1.67;1.67;;;;;22.68;46.72;100286.72;5037042;28;45371;-70
2022/11/08 09:45:51;;;;;;;;;2.33;1.33;;;;;22.72;46.23;100285.34;5037268;28;45384;-70
2022/11/08 09:48:28;;;;;;;;;0.67;0.67;;;;;22.71;46.26;100283.72;5036945;28;45351;-70
2022/11/08 09:50:56;;;;;;;;;0.33;0.33;;;;;22.68;46.48;100285.91;5042737;28;46296;-70
2022/11/08 09:53:34;;;;;;;;;2.67;1.67;;;;;22.72;46.98;100293.28;5041893;28;46045;-70
2022/11/08 09:56:15;;;;;;;;;1.00;0.67;;;;;22.71;46.68;100288.19;5036635;28;45411;-70
2022/11/08 09:58:50;;;;;;;;;0.00;0.00;;;;;22.73;46.82;100292.28;5037102;28;45512;-70
2022/11/08 10:01:16;;;;;;;;;1.33;1.33;;;;;22.62;46.33;100276.91;5040963;28;46094;-70
2022/11/08 10:03:47;;;;;;;;;2.00;0.00;;;;;22.61;46.84;100277.94;5036517;28;45503;-70
2022/11/08 10:06:33;;;;;;;;;1.67;1.67;;;;;22.73;46.82;100283.50;5036718;28;45396;-70
2022/11/08 10:09:42;;;;;;;;;1.67;1.67;;;;;22.73;46.91;100299.41;5036183;28;45424;-70
2022/11/08 10:12:39;;;;;;;;;1.00;1.00;;;;;22.74;46.55;100295.75;5033934;28;46328;-70
2022/11/08 10:15:27;;;;;;;;;1.33;1.33;;;;;22.74;46.92;100287.81;5036774;28;45397;-70
2022/11/08 10:18:11;;;;;;;;;1.00;1.00;;;;;22.74;46.93;100298.41;5026196;28;45376;-70
2022/11/08 10:20:47;;;;;;;;;0.67;0.67;;;;;22.64;46.76;100282.81;5036795;28;45454;-70
2022/11/08 10:23:20;;;;;;;;;0.33;0.33;;;;;22.74;46.55;100298.41;5036130;28;47251;-70
2022/11/08 10:25:59;;;;;;;;;1.33;1.33;;;;;22.74;46.33;100301.06;5036212;28;45385;-70
2022/11/08 10:28:33;;;;;;;;;1.33;0.67;;;;;22.74;46.49;100306.38;5036671;28;45384;-70
2022/11/08 10:30:59;;;;;;;;;1.00;1.00;;;;;22.73;46.30;100305.56;5035789;28;45269;-70
2022/11/08 10:33:36;;;;;;;;;1.67;1.67;;;;;22.66;46.52;100295.91;5036474;28;47300;-70
2022/11/08 10:36:12;;;;;;;;;2.33;1.33;;;;;22.73;46.91;100300.25;5032241;28;45377;-70
2022/11/08 10:39:08;;;;;;;;;1.00;1.00;;;;;22.74;46.31;100303.72;5034420;28;45516;-70
2022/11/08 10:41:51;;;;;;;;;2.00;2.00;;;;;22.73;46.75;100299.41;5036252;28;45312;-70
2022/11/08 10:44:23;;;;;;;;;0.67;0.67;;;;;22.73;46.95;100305.56;5035997;28;47376;-70
2022/11/08 10:47:00;;;;;;;;;2.00;1.00;;;;;22.72;46.50;100300.44;5035595;28;45328;-70
2022/11/08 10:49:25;;;;;;;;;2.00;1.00;;;;;22.73;45.98;100313.50;5036438;28;45335;-70
2022/11/08 10:51:56;;;;;;;;;2.33;0.67;;;;;22.73;46.49;100315.34;5035613;28;45431;-70
2022/11/08 10:54:41;;;;;;;;;0.00;0.00;;;;;22.70;46.34;100308.59;5036164;28;45483;-70
2022/11/08 10:57:07;;;;;;;;;1.00;1.00;;;;;22.72;46.59;100303.06;5035734;28;45770;-70
2022/11/08 10:59:32;;;;;;;;;0.67;0.67;;;;;22.70;46.48;100292.69;5036122;28;45411;-70
2022/11/08 11:01:59;;;;;;;;;1.00;1.00;;;;;22.71;46.96;100298.81;5039873;28;45271;-70
2022/11/08 11:04:28;;;;;;;;;1.00;1.00;;;;;22.71;46.86;100288.19;5035590;28;45294;-70
2022/11/08 11:06:53;;;;;;;;;2.00;1.00;;;;;22.70;46.33;100290.03;5035463;28;45402;-70
2022/11/08 11:09:21;;;;;;;;;1.00;1.00;;;;;22.69;46.67;100288.34;5035972;28;45291;-70
2022/11/08 11:11:58;;;;;;;;;3.33;2.00;;;;;22.63;46.32;100273.25;5036307;28;45473;-70
2022/11/08 11:14:24;;;;;;;;;2.00;1.67;;;;;22.66;46.81;100285.28;5035953;28;46372;-70
2022/11/08 11:17:10;;;;;;;;;3.67;2.33;;;;;22.67;46.45;100287.75;5035603;28;45261;-70
2022/11/08 11:19:35;;;;;;;;;0.33;0.33;;;;;22.66;46.41;100275.50;5023116;28;45309;-70
2022/11/08 11:22:04;;;;;;;;;0.67;0.67;;;;;22.62;46.70;100259.16;5035641;28;45314;-70
2022/11/08 11:24:31;;;;;;;;;3.00;2.00;;;;;22.68;46.99;100265.53;5035488;28;46344;-70
2022/11/08 11:26:56;;;;;;;;;2.00;2.00;;;;;22.67;46.65;100271.81;5035333;28;45458;-70
2022/11/08 11:29:29;;;;;;;;;0.33;0.00;;;;;22.67;46.91;100269.19;5035790;28;45428;-70
2022/11/08 11:31:57;;;;;;;;;1.33;1.33;;;;;22.67;46.36;100260.41;5044360;28;45466;-70
2022/11/08 11:34:35;;;;;;;;;1.00;1.00;;;;;22.67;46.38;100255.91;5034949;28;45391;-70
2022/11/08 11:37:10;;;;;;;;;2.00;2.00;;;;;22.67;46.51;100257.75;5036410;28;45391;-70
2022/11/08 11:39:54;;;;;;;;;1.00;1.00;;;;;22.67;46.85;100261.22;5035618;28;45388;-70
2022/11/08 11:42:33;;;;;;;;;3.00;1.00;;;;;22.67;46.99;100240.00;5023843;28;45370;-70
2022/11/08 11:45:08;;;;;;;;;1.00;1.00;;;;;22.68;46.92;100243.47;5035175;28;46200;-70
2022/11/08 11:47:56;;;;;;;;;0.00;0.00;;;;;22.69;46.98;100243.28;5035403;28;45432;-70
2022/11/08 11:50:31;;;;;;;;;1.67;0.67;;;;;22.70;46.48;100247.59;5034894;28;45473;-70